Time;durP1;ratioP1;P1;durP2;ratioP2;P2;SDS_P1;SDS_P2;PMS_P1;PMS_P2;Temp;Humidity;BMP_temperature;BMP_pressure;BME280_temperature;BME280_humidity;BME280_pressure;Samples;Min_cycle;Max_cycle;Signal;HPM_P1;HPM_P2
2022/07/22 00:02:23;;;;;;;10.68;3.10;;;;;;;16.76;87.27;101464.31;4953447;29;20185;-48
2022/07/22 00:04:49;;;;;;;7.38;2.20;;;;;;;16.69;86.30;101477.28;4953188;29;20183;-46
2022/07/22 00:07:14;;;;;;;8.77;2.40;;;;;;;16.68;85.85;101483.63;4953499;29;20191;-47
2022/07/22 00:09:40;;;;;;;10.00;2.50;;;;;;;16.54;85.97;101484.38;4953649;28;20238;-46
2022/07/22 00:12:06;;;;;;;7.60;2.30;;;;;;;16.62;85.81;101476.75;4953291;29;20178;-46
2022/07/22 00:14:31;;;;;;;6.82;2.00;;;;;;;16.57;86.10;101486.91;4952683;29;20578;-48
2022/07/22 00:16:57;;;;;;;6.70;2.17;;;;;;;16.53;85.77;101489.88;4953498;29;20250;-46
2022/07/22 00:19:24;;;;;;;8.10;2.13;;;;;;;16.63;85.65;101481.19;4953246;28;20206;-46
2022/07/22 00:21:50;;;;;;;7.80;2.30;;;;;;;16.72;85.59;101487.06;4953462;29;20561;-45
2022/07/22 00:24:16;;;;;;;8.52;2.25;;;;;;;16.60;86.06;101483.19;4935590;29;20279;-46
2022/07/22 00:26:42;;;;;;;6.95;2.55;;;;;;;16.69;85.94;101488.09;4953103;29;20166;-47
2022/07/22 00:29:07;;;;;;;7.95;2.38;;;;;;;16.43;86.10;101484.94;4952990;28;20218;-46
2022/07/22 00:31:33;;;;;;;8.18;2.05;;;;;;;16.33;86.61;101493.63;4952892;29;20182;-48
2022/07/22 00:34:02;;;;;;;5.47;2.22;;;;;;;16.55;86.98;101493.38;4952236;29;20623;-45
2022/07/22 00:36:30;;;;;;;8.65;2.53;;;;;;;16.61;86.68;101493.91;4953078;29;20195;-47
2022/07/22 00:38:55;;;;;;;7.25;2.40;;;;;;;16.48;87.16;101482.84;4935062;28;20656;-46
2022/07/22 00:41:21;;;;;;;7.60;2.80;;;;;;;16.55;88.35;101494.25;4953064;29;20207;-48
2022/07/22 00:43:52;;;;;;;6.50;2.05;;;;;;;16.58;88.67;101495.94;4935275;29;20191;-47
2022/07/22 00:46:17;;;;;;;9.48;2.47;;;;;;;16.39;89.28;101504.13;4935401;29;20210;-47
2022/07/22 00:48:43;;;;;;;9.50;2.58;;;;;;;16.32;90.01;101489.19;4952375;28;20202;-48
2022/07/22 00:51:08;;;;;;;7.57;2.55;;;;;;;16.21;90.33;101493.28;4935221;29;20571;-47
2022/07/22 00:53:34;;;;;;;6.10;2.40;;;;;;;16.15;90.57;101490.91;4952686;28;20273;-46
2022/07/22 00:56:01;;;;;;;6.18;2.33;;;;;;;16.11;90.25;101500.13;4935279;29;20207;-45
2022/07/22 00:58:27;;;;;;;10.02;2.72;;;;;;;16.20;90.40;101485.25;4952910;29;20272;-46
2022/07/22 01:00:53;;;;;;;9.95;2.33;;;;;;;16.12;91.44;101491.06;4952630;28;20686;-47
2022/07/22 01:03:18;;;;;;;6.07;2.22;;;;;;;16.05;93.08;101489.63;4951781;29;20178;-46
2022/07/22 01:05:44;;;;;;;9.35;2.72;;;;;;;15.93;93.74;101491.13;4952635;29;20178;-46
2022/07/22 01:08:09;;;;;;;6.57;2.50;;;;;;;15.94;93.86;101500.97;4952193;29;20303;-45
2022/07/22 01:10:35;;;;;;;8.43;2.60;;;;;;;15.91;95.29;101501.13;4935011;29;20643;-47
2022/07/22 01:13:00;;;;;;;5.78;2.28;;;;;;;15.78;95.28;101505.38;4919330;29;20182;-47
2022/07/22 01:15:26;;;;;;;9.65;3.13;;;;;;;15.77;96.13;101511.75;4919285;29;20223;-48
2022/07/22 01:17:51;;;;;;;8.82;2.35;;;;;;;15.68;96.98;101513.03;4934931;29;20175;-45
2022/07/22 01:20:17;;;;;;;6.95;2.40;;;;;;;15.71;98.04;101509.31;4952235;28;20199;-45
2022/07/22 01:22:44;;;;;;;4.93;2.10;;;;;;;15.73;98.75;101507.44;4951968;29;20163;-46
2022/07/22 01:25:11;;;;;;;7.03;2.33;;;;;;;15.32;99.57;101521.06;4934219;29;20190;-47
2022/07/22 01:27:38;;;;;;;7.53;2.42;;;;;;;15.35;100.00;101521.81;4934945;29;20607;-46
2022/07/22 01:30:05;;;;;;;6.32;2.20;;;;;;;15.48;100.00;101522.13;4934731;29;20254;-48
2022/07/22 01:32:30;;;;;;;7.00;2.80;;;;;;;15.42;100.00;101512.47;4934085;29;20182;-45
2022/07/22 01:34:56;;;;;;;5.22;2.30;;;;;;;15.45;100.00;101514.13;4946823;28;20194;-48
2022/07/22 01:37:22;;;;;;;6.20;2.00;;;;;;;15.10;100.00;101521.19;4931906;28;20181;-45
2022/07/22 01:39:48;;;;;;;7.82;2.17;;;;;;;15.15;100.00;101528.16;4952687;28;20202;-47
2022/07/22 01:42:14;;;;;;;3.28;1.55;;;;;;;15.00;100.00;101526.16;4953627;28;20297;-46
2022/07/22 01:44:40;;;;;;;7.40;1.98;;;;;;;15.16;100.00;101516.38;4953159;28;20181;-47
2022/07/22 01:47:07;;;;;;;6.10;1.70;;;;;;;15.15;100.00;101524.56;4937788;28;20331;-45
2022/07/22 01:49:34;;;;;;;7.22;2.13;;;;;;;15.07;100.00;101524.06;4971296;28;20508;-45
2022/07/22 01:52:01;;;;;;;3.53;1.77;;;;;;;15.21;100.00;101519.75;4953796;28;20178;-46
2022/07/22 01:54:27;;;;;;;5.95;2.00;;;;;;;15.01;100.00;101519.78;4952830;28;20399;-47
2022/07/22 01:56:52;;;;;;;5.32;1.80;;;;;;;14.92;100.00;101520.22;4952878;28;20430;-45
2022/07/22 01:59:18;;;;;;;7.22;2.38;;;;;;;14.98;100.00;101522.66;4953402;28;20212;-45
2022/07/22 02:01:45;;;;;;;8.05;1.88;;;;;;;14.71;100.00;101531.00;4957191;28;20244;-45
2022/07/22 02:04:11;;;;;;;7.95;2.05;;;;;;;14.74;100.00;101539.00;4956692;28;20674;-47
2022/07/22 02:06:37;;;;;;;4.70;2.38;;;;;;;14.88;100.00;101529.41;4957323;28;20177;-46
2022/07/22 02:09:03;;;;;;;5.78;2.20;;;;;;;14.86;100.00;101531.28;4956829;28;20685;-45
2022/07/22 02:11:51;;;;;;;3.92;1.90;;;;;;;14.95;100.00;101530.88;4957275;28;20174;-45
2022/07/22 02:14:16;;;;;;;6.03;1.95;;;;;;;14.63;100.00;101533.19;4956686;28;20196;-46
2022/07/22 02:16:43;;;;;;;5.47;2.28;;;;;;;14.43;100.00;101534.91;4956994;28;20182;-45
2022/07/22 02:19:10;;;;;;;4.97;1.77;;;;;;;14.27;100.00;101528.41;4957403;28;20209;-48
2022/07/22 02:21:37;;;;;;;5.78;1.92;;;;;;;14.47;100.00;101521.28;4974471;28;20582;-47
2022/07/22 02:24:03;;;;;;;5.50;2.00;;;;;;;14.42;100.00;101532.25;4959253;28;20195;-45
2022/07/22 02:26:29;;;;;;;6.88;2.22;;;;;;;14.42;100.00;101525.03;4937492;29;20182;-46
2022/07/22 02:28:54;;;;;;;4.03;2.03;;;;;;;14.47;100.00;101522.16;4954879;29;20758;-48
2022/07/22 02:31:21;;;;;;;5.47;2.45;;;;;;;14.49;100.00;101520.25;4937785;29;20211;-46
2022/07/22 02:33:47;;;;;;;6.03;2.25;;;;;;;14.55;100.00;101527.25;4968951;28;20187;-45
2022/07/22 02:36:12;;;;;;;7.10;2.53;;;;;;;14.38;100.00;101525.25;4938003;29;20182;-45
2022/07/22 02:38:39;;;;;;;8.35;2.15;;;;;;;14.60;100.00;101519.81;4936847;29;20607;-46
2022/07/22 02:41:05;;;;;;;7.05;2.20;;;;;;;14.56;100.00;101526.28;4937679;29;20297;-46
2022/07/22 02:43:32;;;;;;;5.40;1.98;;;;;;;14.43;100.00;101520.56;4969207;28;20266;-46
2022/07/22 02:45:58;;;;;;;5.95;2.58;;;;;;;14.55;100.00;101516.47;4969491;28;20596;-46
2022/07/22 02:48:24;;;;;;;7.65;2.65;;;;;;;14.62;100.00;101524.19;4937586;29;20214;-48
2022/07/22 02:50:50;;;;;;;5.32;2.20;;;;;;;14.71;100.00;101519.34;4937278;29;20294;-47
2022/07/22 02:53:22;;;;;;;6.25;2.38;;;;;;;14.69;100.00;101521.25;4968734;28;20190;-46
2022/07/22 02:55:48;;;;;;;9.52;2.63;;;;;;;14.69;100.00;101513.16;4969368;28;20178;-48
2022/07/22 02:58:15;;;;;;;6.18;2.20;;;;;;;14.78;100.00;101520.81;4937144;29;20650;-48
2022/07/22 03:00:42;;;;;;;3.30;1.90;;;;;;;14.63;100.00;101520.56;4937226;29;20202;-47
2022/07/22 03:03:08;;;;;;;6.82;2.58;;;;;;;14.70;100.00;101523.88;4929425;28;20642;-47
2022/07/22 03:05:33;;;;;;;5.57;2.40;;;;;;;14.65;100.00;101528.63;4955726;28;20213;-47
2022/07/22 03:08:22;;;;;;;6.50;2.30;;;;;;;14.71;100.00;101528.31;4953984;28;20693;-46
2022/07/22 03:10:48;;;;;;;7.65;2.55;;;;;;;14.53;100.00;101519.19;4955575;28;20213;-46
2022/07/22 03:13:13;;;;;;;9.98;2.60;;;;;;;14.66;100.00;101533.03;4955009;28;20505;-46
2022/07/22 03:15:39;;;;;;;5.75;2.40;;;;;;;14.52;100.00;101539.03;4955873;28;20177;-45
2022/07/22 03:18:04;;;;;;;9.50;2.58;;;;;;;14.51;100.00;101536.38;4973216;28;20176;-46
2022/07/22 03:20:30;;;;;;;5.18;2.00;;;;;;;14.50;100.00;101540.03;4955768;28;20710;-45
2022/07/22 03:22:56;;;;;;;4.88;2.40;;;;;;;14.72;100.00;101545.41;4967393;28;20461;-46
2022/07/22 03:25:22;;;;;;;5.13;2.28;;;;;;;14.74;100.00;101530.03;4936179;29;20186;-46
2022/07/22 03:27:47;;;;;;;3.92;2.45;;;;;;;14.72;100.00;101548.97;4936374;29;20207;-45
2022/07/22 03:30:13;;;;;;;6.95;2.35;;;;;;;14.65;100.00;101546.59;4936569;29;20237;-47
2022/07/22 03:32:44;;;;;;;7.95;2.97;;;;;;;14.55;100.00;101546.13;4935433;29;20179;-45
2022/07/22 03:35:11;;;;;;;6.38;3.03;;;;;;;14.66;100.00;101545.66;4932901;28;20182;-47
2022/07/22 03:37:40;;;;;;;6.07;3.03;;;;;;;14.58;100.00;101551.38;4955047;28;20202;-45
2022/07/22 03:40:07;;;;;;;13.60;3.33;;;;;;;14.66;100.00;101549.22;4955299;28;20304;-46
2022/07/22 03:42:33;;;;;;;11.68;3.38;;;;;;;14.51;100.00;101549.88;4955443;28;20178;-45
2022/07/22 03:44:58;;;;;;;7.15;2.92;;;;;;;14.66;100.00;101546.53;4949224;28;20193;-46
2022/07/22 03:47:24;;;;;;;7.90;3.15;;;;;;;14.57;100.00;101545.13;4944904;28;20209;-47
2022/07/22 03:49:51;;;;;;;8.73;3.03;;;;;;;14.61;100.00;101541.34;4955020;28;20621;-46
2022/07/22 03:52:22;;;;;;;9.05;3.30;;;;;;;14.78;100.00;101550.50;4954744;28;20269;-46
2022/07/22 03:54:47;;;;;;;9.07;3.03;;;;;;;14.69;100.00;101540.13;4970871;28;20214;-47
2022/07/22 03:57:13;;;;;;;7.40;3.15;;;;;;;14.67;100.00;101539.31;4954775;28;20609;-47
2022/07/22 03:59:40;;;;;;;7.68;3.33;;;;;;;14.77;100.00;101536.13;4954935;28;20209;-45
2022/07/22 04:02:06;;;;;;;13.73;3.70;;;;;;;14.76;100.00;101538.94;4954877;28;20186;-46
2022/07/22 04:04:31;;;;;;;7.45;3.08;;;;;;;14.67;100.00;101540.22;4954692;28;20191;-46
2022/07/22 04:06:58;;;;;;;11.23;3.65;;;;;;;14.68;100.00;101544.66;4954795;28;20185;-46
2022/07/22 04:09:31;;;;;;;11.15;3.75;;;;;;;14.67;100.00;101544.69;4954199;28;20209;-46
2022/07/22 04:11:57;;;;;;;10.93;3.80;;;;;;;14.62;100.00;101537.69;4954870;28;20745;-45
2022/07/22 04:14:25;;;;;;;15.98;3.72;;;;;;;14.64;100.00;101537.63;4938763;28;20356;-47
2022/07/22 04:16:50;;;;;;;9.68;3.60;;;;;;;14.74;100.00;101539.00;4954134;28;20174;-48
2022/07/22 04:19:16;;;;;;;12.55;3.30;;;;;;;14.78;100.00;101542.41;4954795;28;20282;-45
2022/07/22 04:21:52;;;;;;;8.07;3.30;;;;;;;14.89;100.00;101540.13;4954867;28;20181;-46
2022/07/22 04:24:20;;;;;;;13.65;4.30;;;;;;;14.69;100.00;101545.50;4937583;28;20578;-47
2022/07/22 04:26:46;;;;;;;11.13;4.15;;;;;;;14.71;100.00;101547.19;4967401;28;20183;-48
2022/07/22 04:29:12;;;;;;;13.25;3.58;;;;;;;14.71;100.00;101547.19;4967657;28;20210;-48
2022/07/22 04:31:39;;;;;;;8.40;3.40;;;;;;;14.66;100.00;101538.44;4967685;28;20642;-47
2022/07/22 04:34:10;;;;;;;14.10;3.70;;;;;;;14.56;100.00;101539.78;4967113;28;20183;-46
2022/07/22 04:36:36;;;;;;;10.30;3.33;;;;;;;14.79;100.00;101544.19;4935686;29;20183;-47
2022/07/22 04:39:02;;;;;;;14.75;3.78;;;;;;;14.73;100.00;101547.13;4935425;29;20170;-47
2022/07/22 04:41:28;;;;;;;14.25;3.53;;;;;;;14.73;100.00;101539.91;4935088;29;20677;-48
2022/07/22 04:43:53;;;;;;;13.30;3.75;;;;;;;14.77;100.00;101537.97;4952589;29;20707;-49
2022/07/22 04:46:22;;;;;;;10.20;4.20;;;;;;;14.87;100.00;101546.50;4935516;29;20189;-47
2022/07/22 04:48:47;;;;;;;13.40;4.00;;;;;;;14.77;100.00;101533.44;4967613;28;20199;-47
2022/07/22 04:51:12;;;;;;;12.00;3.53;;;;;;;14.80;100.00;101540.50;4952375;29;20185;-46
2022/07/22 04:53:39;;;;;;;20.48;3.83;;;;;;;14.77;100.00;101532.56;4934807;29;20174;-46
2022/07/22 04:56:05;;;;;;;13.38;3.53;;;;;;;14.74;100.00;101538.13;4935099;29;20182;-46
2022/07/22 04:58:30;;;;;;;17.05;4.07;;;;;;;14.69;100.00;101541.00;4935013;29;20186;-45
2022/07/22 05:00:57;;;;;;;12.88;3.60;;;;;;;14.78;100.00;101535.22;4935392;29;20206;-46
2022/07/22 05:03:24;;;;;;;14.80;4.47;;;;;;;14.76;100.00;101531.72;4951719;29;20199;-45
2022/07/22 05:05:49;;;;;;;15.63;3.65;;;;;;;14.79;100.00;101539.66;4935427;29;20661;-45
2022/07/22 05:08:23;;;;;;;16.05;4.60;;;;;;;14.90;100.00;101535.59;4934574;29;20194;-45
2022/07/22 05:10:49;;;;;;;14.48;4.07;;;;;;;14.89;100.00;101533.84;4966867;28;20230;-46
2022/07/22 05:13:14;;;;;;;14.65;3.97;;;;;;;14.88;100.00;101548.28;4934815;29;20524;-47
2022/07/22 05:15:41;;;;;;;16.77;3.80;;;;;;;14.97;100.00;101542.47;4934610;29;20242;-47
2022/07/22 05:18:06;;;;;;;17.77;4.13;;;;;;;14.88;100.00;101534.78;4952738;29;20760;-46
2022/07/22 05:20:32;;;;;;;20.05;4.72;;;;;;;15.01;100.00;101533.28;4935275;29;20323;-49
2022/07/22 05:22:58;;;;;;;19.05;4.85;;;;;;;15.01;100.00;101531.47;4934179;29;20681;-46
2022/07/22 05:25:26;;;;;;;18.50;4.15;;;;;;;15.12;100.00;101532.81;4934406;29;20215;-47
2022/07/22 05:27:54;;;;;;;18.65;4.85;;;;;;;15.09;100.00;101531.13;4934786;29;20206;-47
2022/07/22 05:30:25;;;;;;;15.75;4.45;;;;;;;15.11;100.00;101531.03;4967027;28;20203;-49
2022/07/22 05:32:52;;;;;;;16.98;4.78;;;;;;;15.21;100.00;101527.84;4966805;28;20290;-48
2022/07/22 05:35:29;;;;;;;18.85;4.20;;;;;;;15.23;100.00;101535.88;4933982;29;20209;-48
2022/07/22 05:37:55;;;;;;;19.45;4.95;;;;;;;15.14;100.00;101531.78;4966368;28;20294;-48
2022/07/22 05:40:22;;;;;;;17.58;4.45;;;;;;;15.23;100.00;101534.03;4934504;29;20579;-46
2022/07/22 05:42:48;;;;;;;14.45;4.50;;;;;;;15.30;100.00;101536.47;4959602;28;20662;-46
2022/07/22 05:45:13;;;;;;;12.25;3.58;;;;;;;15.38;100.00;101531.59;4933721;29;20186;-47
2022/07/22 05:47:39;;;;;;;19.08;4.82;;;;;;;15.42;100.00;101525.97;4934565;29;20253;-49
2022/07/22 05:50:05;;;;;;;15.55;4.80;;;;;;;15.62;100.00;101529.53;4952102;28;20237;-46
2022/07/22 05:52:34;;;;;;;18.30;3.83;;;;;;;15.58;100.00;101533.34;4934086;29;20185;-47
2022/07/22 05:55:00;;;;;;;19.30;4.22;;;;;;;15.47;100.00;101530.28;4933797;29;20197;-47
2022/07/22 05:57:26;;;;;;;18.00;4.38;;;;;;;15.64;100.00;101533.91;4934932;29;20183;-47
2022/07/22 05:59:52;;;;;;;21.45;5.32;;;;;;;15.76;100.00;101537.88;4934487;29;20254;-48
2022/07/22 06:02:18;;;;;;;17.23;3.88;;;;;;;15.71;100.00;101528.22;4951440;29;20175;-48
2022/07/22 06:04:47;;;;;;;16.67;4.38;;;;;;;15.66;99.88;101537.41;4933718;29;20234;-47
2022/07/22 06:07:14;;;;;;;14.02;3.60;;;;;;;15.90;99.66;101537.22;4934648;29;20718;-48
2022/07/22 06:09:41;;;;;;;16.83;3.50;;;;;;;15.76;98.79;101539.72;4934040;29;20207;-47
2022/07/22 06:12:07;;;;;;;16.45;4.07;;;;;;;16.03;97.77;101542.91;4934336;29;20335;-47
2022/07/22 06:14:33;;;;;;;14.30;3.63;;;;;;;16.16;96.62;101541.31;4933579;29;20183;-46
2022/07/22 06:16:59;;;;;;;14.75;3.88;;;;;;;16.43;94.75;101547.16;4934796;29;20185;-46
2022/07/22 06:19:25;;;;;;;11.63;3.03;;;;;;;16.53;93.04;101549.38;4933853;29;20209;-46
2022/07/22 06:21:51;;;;;;;16.40;3.92;;;;;;;16.46;93.36;101546.13;4952288;29;20226;-45
2022/07/22 06:24:16;;;;;;;14.25;3.88;;;;;;;16.58;93.43;101542.78;4933898;29;20548;-46
2022/07/22 06:26:42;;;;;;;15.02;3.80;;;;;;;16.37;93.00;101552.88;4966469;28;20183;-47
2022/07/22 06:29:07;;;;;;;15.40;3.25;;;;;;;16.17;92.95;101548.47;4934391;29;20211;-47
2022/07/22 06:31:33;;;;;;;17.10;3.90;;;;;;;16.15;92.95;101549.50;4934062;29;20230;-46
2022/07/22 06:33:59;;;;;;;15.57;3.05;;;;;;;16.32;91.52;101556.78;4933987;29;20179;-48
2022/07/22 06:36:36;;;;;;;16.65;3.53;;;;;;;16.12;91.36;101546.97;4934313;29;20531;-47
2022/07/22 06:39:02;;;;;;;14.30;3.25;;;;;;;16.03;91.63;101542.91;4934107;29;20179;-48
2022/07/22 06:41:46;;;;;;;20.17;3.33;;;;;;;15.94;92.26;101538.81;4951675;29;20178;-47
2022/07/22 06:44:51;;;;;;;14.02;3.83;;;;;;;16.03;92.34;101549.19;4939033;29;20190;-48
2022/07/22 06:47:35;;;;;;;15.65;3.47;;;;;;;16.01;93.28;101556.47;4937947;29;20629;-48
2022/07/22 06:50:05;;;;;;;20.15;4.45;;;;;;;15.96;92.94;101547.72;4937824;29;20611;-46
2022/07/22 06:52:31;;;;;;;19.13;3.42;;;;;;;15.83;92.96;101549.25;4937857;29;20265;-44
2022/07/22 06:54:59;;;;;;;19.67;4.15;;;;;;;15.98;92.65;101562.06;4937329;29;20206;-44
2022/07/22 06:57:29;;;;;;;16.83;3.90;;;;;;;16.06;91.92;101562.53;4937570;29;20175;-43
2022/07/22 06:59:55;;;;;;;17.55;3.95;;;;;;;16.24;91.73;101558.03;4937642;29;20266;-44
2022/07/22 07:02:22;;;;;;;16.58;3.25;;;;;;;16.50;90.83;101563.94;4937079;29;20584;-45
2022/07/22 07:04:48;;;;;;;17.02;3.58;;;;;;;16.41;90.14;101561.72;4936919;29;20206;-43
2022/07/22 07:07:13;;;;;;;15.70;3.25;;;;;;;16.44;89.85;101561.53;4937549;29;20615;-44
2022/07/22 07:09:49;;;;;;;18.70;3.35;;;;;;;16.39;90.54;101556.38;4958683;28;20580;-44
2022/07/22 07:12:32;;;;;;;16.30;3.38;;;;;;;16.27;90.38;101560.59;4922867;29;20189;-43
2022/07/22 07:15:07;;;;;;;17.33;3.70;;;;;;;16.26;90.92;101563.34;4954176;28;20186;-43
2022/07/22 07:17:33;;;;;;;20.13;3.53;;;;;;;16.28;91.85;101565.03;4937383;29;20234;-45
2022/07/22 07:20:00;;;;;;;15.02;3.50;;;;;;;16.52;91.15;101569.28;4937554;29;20284;-42
2022/07/22 07:22:26;;;;;;;12.48;3.30;;;;;;;16.86;90.56;101566.59;4954274;29;20214;-43
2022/07/22 07:24:52;;;;;;;20.10;3.45;;;;;;;16.84;89.67;101571.22;4968865;28;20194;-45
2022/07/22 07:27:18;;;;;;;12.48;3.85;;;;;;;16.87;89.38;101570.19;4937224;29;20254;-44
2022/07/22 07:29:50;;;;;;;14.05;3.72;;;;;;;16.89;89.21;101569.13;4936928;29;20205;-45
2022/07/22 07:32:15;;;;;;;20.38;4.00;;;;;;;16.82;88.33;101574.97;4969179;28;20183;-45
2022/07/22 07:34:41;;;;;;;16.38;3.17;;;;;;;16.80;88.58;101575.03;4936170;29;20214;-43
2022/07/22 07:37:06;;;;;;;14.43;3.60;;;;;;;16.65;88.25;101584.78;4937640;29;20191;-44
2022/07/22 07:39:32;;;;;;;14.15;2.90;;;;;;;16.57;87.52;101581.59;4953092;28;20627;-44
2022/07/22 07:41:58;;;;;;;19.30;2.65;;;;;;;16.74;85.58;101580.72;4934983;29;20534;-43
2022/07/22 07:44:24;;;;;;;16.08;3.40;;;;;;;16.76;85.46;101580.66;4936054;29;20225;-44
2022/07/22 07:46:49;;;;;;;15.02;3.45;;;;;;;16.77;85.27;101590.53;4937195;29;20206;-42
2022/07/22 07:49:15;;;;;;;16.50;3.63;;;;;;;16.87;85.32;101584.56;4937106;29;20351;-45
2022/07/22 07:51:40;;;;;;;21.73;3.10;;;;;;;16.71;85.88;101585.44;4936851;29;20182;-45
2022/07/22 07:54:06;;;;;;;15.88;3.00;;;;;;;16.69;86.52;101590.94;4936274;29;20214;-42
2022/07/22 07:56:32;;;;;;;17.10;3.35;;;;;;;16.62;86.05;101600.34;4936559;29;20167;-43
2022/07/22 07:58:58;;;;;;;14.32;2.65;;;;;;;16.93;85.74;101596.94;4935887;28;20639;-42
2022/07/22 08:01:23;;;;;;;17.35;3.08;;;;;;;17.13;85.86;101592.28;4936534;29;20197;-46
2022/07/22 08:03:49;;;;;;;14.10;3.45;;;;;;;17.34;84.63;101595.66;4936176;29;20185;-43
2022/07/22 08:06:14;;;;;;;16.33;3.50;;;;;;;17.37;83.69;101596.38;4936324;29;20568;-44
2022/07/22 08:08:40;;;;;;;16.40;2.97;;;;;;;16.99;82.96;101593.91;4936081;29;20219;-43
2022/07/22 08:11:14;;;;;;;13.68;3.35;;;;;;;17.24;83.31;101598.00;4936495;29;20270;-45
2022/07/22 08:14:19;;;;;;;14.95;2.53;;;;;;;17.18;81.92;101599.19;4894016;29;20196;-44
2022/07/22 08:17:02;;;;;;;13.00;3.60;;;;;;;17.42;81.20;101604.25;4878657;29;20191;-44
2022/07/22 08:19:28;;;;;;;15.68;3.33;;;;;;;17.09;82.53;101607.81;4929131;28;20651;-44
2022/07/22 08:21:53;;;;;;;15.43;3.03;;;;;;;17.04;83.70;101604.50;4935943;29;20224;-44
2022/07/22 08:24:27;;;;;;;18.30;2.75;;;;;;;17.27;83.82;101601.44;4935155;29;20288;-45
2022/07/22 08:26:54;;;;;;;15.82;3.30;;;;;;;17.32;83.06;101598.47;4936093;29;20184;-43
2022/07/22 08:29:19;;;;;;;16.23;3.17;;;;;;;17.13;84.24;101606.69;4953320;28;20207;-43
2022/07/22 08:31:46;;;;;;;13.88;2.85;;;;;;;17.14;83.79;101603.03;4935422;29;20629;-42
2022/07/22 08:34:14;;;;;;;13.95;2.85;;;;;;;16.93;83.26;101602.34;4935591;29;20183;-43
2022/07/22 08:36:39;;;;;;;16.30;2.72;;;;;;;17.24;83.95;101614.25;4952906;28;20626;-43
2022/07/22 08:39:05;;;;;;;16.52;3.20;;;;;;;17.05;84.91;101614.34;4952805;28;20171;-42
2022/07/22 08:41:36;;;;;;;16.48;3.13;;;;;;;16.80;84.32;101622.88;4952750;29;20525;-44
2022/07/22 08:44:03;;;;;;;11.35;2.88;;;;;;;17.02;82.79;101628.94;4935195;29;20202;-42
2022/07/22 08:46:29;;;;;;;12.15;2.75;;;;;;;16.92;82.38;101632.19;4935680;29;20226;-43
2022/07/22 08:49:17;;;;;;;12.77;2.63;;;;;;;16.91;83.23;101625.03;4961206;28;20223;-43
2022/07/22 08:52:01;;;;;;;15.00;2.60;;;;;;;16.88;81.92;101636.91;4961174;28;20179;-45
2022/07/22 08:54:34;;;;;;;11.98;2.85;;;;;;;17.17;81.17;101638.06;4952644;29;20207;-44
2022/07/22 08:57:00;;;;;;;7.57;1.98;;;;;;;17.26;80.58;101634.88;4935685;29;20179;-51
2022/07/22 08:59:26;;;;;;;12.60;2.70;;;;;;;17.35;80.71;101632.63;4935737;29;20266;-45
2022/07/22 09:02:10;;;;;;;10.55;2.40;;;;;;;17.19;81.57;101638.00;4935381;29;20171;-45
2022/07/22 09:04:57;;;;;;;13.90;2.78;;;;;;;17.21;80.96;101636.97;4935477;29;20174;-50
2022/07/22 09:07:34;;;;;;;11.45;3.13;;;;;;;17.05;81.43;101639.63;4935082;29;20638;-44
2022/07/22 09:10:10;;;;;;;10.57;2.30;;;;;;;17.00;82.03;101638.09;4934622;29;20297;-46
2022/07/22 09:13:15;;;;;;;11.38;2.30;;;;;;;17.03;81.24;101646.94;4893182;29;20660;-46
2022/07/22 09:15:54;;;;;;;9.43;2.05;;;;;;;16.98;81.34;101648.13;4893712;29;20311;-47
2022/07/22 09:18:50;;;;;;;9.05;2.10;;;;;;;17.11;79.76;101642.94;4933884;29;20198;-45
2022/07/22 09:21:50;;;;;;;7.93;2.03;;;;;;;17.22;78.05;101638.69;4943748;29;20673;-47
2022/07/22 09:24:30;;;;;;;8.63;2.30;;;;;;;17.43;76.99;101655.66;4934229;29;20634;-45
2022/07/22 09:27:23;;;;;;;13.27;2.13;;;;;;;17.41;76.79;101640.44;4935159;29;20554;-45
2022/07/22 09:30:13;;;;;;;8.27;1.90;;;;;;;17.54;75.92;101649.66;4951867;28;20702;-44
2022/07/22 09:32:45;;;;;;;9.20;1.77;;;;;;;17.28;76.12;101637.50;4928231;29;20180;-46
2022/07/22 09:35:30;;;;;;;12.65;2.42;;;;;;;17.24;77.29;101649.47;4952558;29;20177;-44
2022/07/22 09:37:58;;;;;;;11.93;2.17;;;;;;;17.29;78.18;101659.09;4935334;29;20191;-44
2022/07/22 09:40:26;;;;;;;10.15;2.47;;;;;;;17.42;77.54;101645.75;4935165;29;20313;-46
2022/07/22 09:43:00;;;;;;;7.60;1.73;;;;;;;17.54;76.37;101641.53;4919287;29;20182;-48
2022/07/22 09:45:28;;;;;;;11.77;1.85;;;;;;;17.44;76.36;101648.38;4952493;29;20215;-44
2022/07/22 09:47:56;;;;;;;9.07;2.50;;;;;;;17.81;75.93;101638.25;4934667;29;20245;-44
2022/07/22 09:50:45;;;;;;;8.57;2.00;;;;;;;18.03;72.48;101641.53;4935082;29;20286;-44
2022/07/22 09:53:14;;;;;;;12.20;1.67;;;;;;;18.22;72.33;101644.06;4952360;29;20186;-47
2022/07/22 09:55:45;;;;;;;9.95;2.25;;;;;;;18.04;72.31;101639.72;4935084;29;20173;-48
2022/07/22 09:58:12;;;;;;;11.45;2.13;;;;;;;17.77;72.57;101652.91;4934964;29;20197;-46
2022/07/22 10:00:39;;;;;;;8.40;1.95;;;;;;;17.79;73.01;101642.88;4934670;29;20194;-44
2022/07/22 10:03:07;;;;;;;9.60;1.58;;;;;;;17.66;73.10;101648.97;4934900;29;20170;-49
2022/07/22 10:05:40;;;;;;;9.00;1.73;;;;;;;17.59;74.49;101646.69;4935063;29;20174;-45
2022/07/22 10:08:08;;;;;;;11.68;1.90;;;;;;;17.84;74.58;101651.66;4952190;29;20307;-44
2022/07/22 10:10:37;;;;;;;9.30;1.75;;;;;;;18.05;75.04;101646.88;4935207;29;20554;-46
2022/07/22 10:13:05;;;;;;;7.15;1.60;;;;;;;18.25;73.96;101652.03;4934571;29;20666;-45
2022/07/22 10:15:32;;;;;;;10.13;2.10;;;;;;;18.33;72.12;101640.75;4934870;29;20170;-45
2022/07/22 10:18:01;;;;;;;10.90;2.10;;;;;;;18.70;72.10;101644.88;4934480;29;20554;-49
2022/07/22 10:20:28;;;;;;;7.38;2.20;;;;;;;18.38;71.94;101638.63;4934862;29;20223;-45
2022/07/22 10:23:01;;;;;;;6.50;1.63;;;;;;;18.07;72.83;101643.09;4938708;29;20198;-48
2022/07/22 10:25:29;;;;;;;13.73;2.28;;;;;;;18.21;72.76;101644.16;4938533;29;20190;-44
2022/07/22 10:28:04;;;;;;;5.70;1.50;;;;;;;17.95;72.09;101654.66;4938705;29;20706;-44
2022/07/22 10:30:33;;;;;;;6.88;1.83;;;;;;;17.86;72.26;101647.00;4955443;28;20555;-43
2022/07/22 10:33:02;;;;;;;9.93;2.10;;;;;;;17.84;73.61;101643.50;4955530;29;20171;-46
2022/07/22 10:35:28;;;;;;;8.93;2.05;;;;;;;17.84;73.60;101647.13;4955720;29;20273;-45
2022/07/22 10:38:02;;;;;;;10.52;1.98;;;;;;;17.66;73.97;101662.50;4938135;29;20586;-44
2022/07/22 10:40:46;;;;;;;10.85;1.85;;;;;;;17.79;73.26;101657.28;4938393;29;20665;-46
2022/07/22 10:43:14;;;;;;;10.18;1.98;;;;;;;17.87;74.06;101660.50;4955280;29;20217;-46
2022/07/22 10:45:45;;;;;;;9.13;1.63;;;;;;;17.79;73.21;101659.13;4954380;29;20179;-44
2022/07/22 10:48:36;;;;;;;8.40;2.10;;;;;;;17.99;73.53;101658.91;4955389;28;20270;-40
2022/07/22 10:51:11;;;;;;;7.93;1.45;;;;;;;17.91;73.13;101658.50;4935198;29;20214;-45
2022/07/22 10:53:51;;;;;;;7.50;1.85;;;;;;;17.74;74.15;101663.94;4955408;29;20209;-43
2022/07/22 10:56:26;;;;;;;6.05;1.70;;;;;;;17.81;74.66;101670.78;4955435;29;20706;-50
2022/07/22 10:59:09;;;;;;;11.05;1.98;;;;;;;17.83;74.28;101658.91;4955123;28;20147;-46
2022/07/22 11:01:35;;;;;;;7.70;1.90;;;;;;;18.06;73.66;101654.03;4955250;29;20198;-45
2022/07/22 11:04:09;;;;;;;8.63;2.00;;;;;;;18.36;73.82;101658.69;4955079;29;20265;-45
2022/07/22 11:06:35;;;;;;;7.97;1.80;;;;;;;18.54;71.23;101654.88;4955292;29;20177;-45
2022/07/22 11:09:05;;;;;;;9.27;2.00;;;;;;;18.54;69.82;101652.16;4954651;28;20210;-47
2022/07/22 11:11:33;;;;;;;6.65;1.63;;;;;;;18.53;69.12;101643.16;4955522;29;20171;-45
2022/07/22 11:13:59;;;;;;;7.80;1.77;;;;;;;18.56;69.65;101652.09;4953661;29;20643;-45
2022/07/22 11:16:25;;;;;;;8.40;1.55;;;;;;;18.61;67.94;101652.72;4954951;29;20174;-49
2022/07/22 11:18:52;;;;;;;7.78;1.73;;;;;;;18.49;67.48;101647.00;4955330;28;20178;-45
2022/07/22 11:21:23;;;;;;;6.05;1.70;;;;;;;18.77;67.12;101656.25;4937758;29;20655;-45
2022/07/22 11:23:51;;;;;;;5.25;1.45;;;;;;;18.63;67.92;101643.50;4954804;29;20202;-49
2022/07/22 11:26:19;;;;;;;5.20;1.20;;;;;;;19.17;67.02;101645.72;4954511;29;20159;-46